createdAt,value
2023-03-05T00:02:14.543Z,95.30
2023-03-05T00:05:03.469Z,94.93
2023-03-05T00:07:45.671Z,91.93
2023-03-05T00:10:34.499Z,89.07
2023-03-05T00:13:23.516Z,86.18
2023-03-05T00:16:05.831Z,85.30
2023-03-05T00:18:54.508Z,86.30
2023-03-05T00:21:46.351Z,86.43
2023-03-05T00:24:35.523Z,85.82
2023-03-05T00:27:17.754Z,85.90
2023-03-05T00:30:06.784Z,89.43
2023-03-05T00:32:48.831Z,85.35
2023-03-05T00:35:37.547Z,88.00
2023-03-05T00:38:21.810Z,86.68
2023-03-05T00:41:10.556Z,86.65
2023-03-05T00:43:52.738Z,85.70
2023-03-05T00:46:42.628Z,87.55
2023-03-05T00:49:24.863Z,87.03
2023-03-05T00:52:13.457Z,89.80
2023-03-05T00:54:55.813Z,89.45
2023-03-05T00:57:44.460Z,89.45
2023-03-05T01:00:26.812Z,87.68
2023-03-05T01:03:16.479Z,85.05
2023-03-05T01:06:05.750Z,89.25
2023-03-05T01:08:48.434Z,88.35
2023-03-05T01:11:33.066Z,89.70
2023-03-05T01:14:21.488Z,90.07
2023-03-05T01:17:10.477Z,89.68
2023-03-05T01:19:52.754Z,91.50
2023-03-05T01:22:41.488Z,89.82
2023-03-05T01:25:24.733Z,92.22
2023-03-05T01:28:15.427Z,90.32
2023-03-05T01:30:57.813Z,89.40
2023-03-05T01:33:46.532Z,90.15
2023-03-05T01:36:31.344Z,89.60
2023-03-05T01:39:20.514Z,90.63
2023-03-05T01:42:02.818Z,92.32
2023-03-05T01:45:18.510Z,90.57
2023-03-05T01:48:00.803Z,90.43
2023-03-05T01:50:49.457Z,92.63
2023-03-05T01:53:31.741Z,91.60
2023-03-05T01:56:20.505Z,91.45
2023-03-05T01:59:26.283Z,94.32
2023-03-05T02:02:15.469Z,91.13
2023-03-05T02:05:10.687Z,91.35
2023-03-05T02:07:53.501Z,92.68
2023-03-05T02:10:51.397Z,93.47
2023-03-05T02:13:45.572Z,91.95
2023-03-05T02:16:37.802Z,93.15
2023-03-05T02:19:20.477Z,95.00
2023-03-05T02:22:08.755Z,93.82
2023-03-05T02:24:51.510Z,94.93
2023-03-05T02:27:37.837Z,95.32
2023-03-05T02:30:28.506Z,95.78
2023-03-05T02:33:10.820Z,97.65
2023-03-05T02:36:00.494Z,96.97
2023-03-05T02:38:50.791Z,97.68
2023-03-05T02:41:36.409Z,99.57
2023-03-05T02:44:19.817Z,97.53
2023-03-05T02:47:08.450Z,98.75
2023-03-05T02:49:51.705Z,103.18
2023-03-05T02:52:42.517Z,101.28
2023-03-05T02:55:27.368Z,98.63
2023-03-05T02:58:17.483Z,93.32
2023-03-05T03:01:05.765Z,92.25
2023-03-05T03:03:48.476Z,88.25
2023-03-05T03:06:36.735Z,85.03
2023-03-05T03:09:19.418Z,83.35
2023-03-05T03:12:01.637Z,81.45
2023-03-05T03:14:53.408Z,85.13
2023-03-05T03:17:37.517Z,83.53
2023-03-05T03:20:28.471Z,84.40
2023-03-05T03:23:17.515Z,89.20
2023-03-05T03:25:59.929Z,92.80
2023-03-05T03:28:48.437Z,89.70
2023-03-05T03:31:30.719Z,92.28
2023-03-05T03:34:23.493Z,98.82
2023-03-05T03:37:05.739Z,102.95
2023-03-05T03:39:54.483Z,99.22
2023-03-05T03:42:36.779Z,99.65
2023-03-05T03:45:25.462Z,95.78
2023-03-05T03:48:14.338Z,93.65
2023-03-05T03:51:03.429Z,92.60
2023-03-05T03:53:52.486Z,93.75
2023-03-05T03:56:34.672Z,86.60
2023-03-05T03:59:23.535Z,87.57
2023-03-05T04:02:05.673Z,80.53
2023-03-05T04:04:54.423Z,78.63
2023-03-05T04:07:36.709Z,84.32
2023-03-05T04:10:26.469Z,82.68
2023-03-05T04:13:08.909Z,86.85
2023-03-05T04:15:58.475Z,88.93
2023-03-05T04:18:41.018Z,89.80
2023-03-05T04:21:29.510Z,80.93
2023-03-05T04:24:11.842Z,64.55
2023-03-05T04:27:00.522Z,57.85
2023-03-05T04:29:49.510Z,55.65
2023-03-05T04:32:31.934Z,55.55
2023-03-05T04:35:20.477Z,53.58
2023-03-05T04:38:02.707Z,56.85
2023-03-05T04:40:52.457Z,54.92
2023-03-05T04:43:41.439Z,54.30
2023-03-05T04:46:29.794Z,52.47
2023-03-05T04:49:12.479Z,47.60
2023-03-05T04:52:00.778Z,46.78
2023-03-05T04:54:43.556Z,52.40
2023-03-05T04:57:31.723Z,54.70
2023-03-05T05:00:26.091Z,52.08
2023-03-05T05:03:08.716Z,52.15
2023-03-05T05:06:10.448Z,49.50
2023-03-05T05:08:59.495Z,44.78
2023-03-05T05:11:41.855Z,50.72
2023-03-05T05:14:30.465Z,47.75
2023-03-05T05:17:12.750Z,36.75
2023-03-05T05:20:02.460Z,30.90
2023-03-05T05:22:44.966Z,33.97
2023-03-05T05:25:34.476Z,32.60
2023-03-05T05:28:18.826Z,33.60
2023-03-05T05:31:07.530Z,29.92
2023-03-05T05:33:50.758Z,35.13
2023-03-05T05:36:39.479Z,36.45
2023-03-05T05:39:21.824Z,26.00
2023-03-05T05:42:11.488Z,23.35
2023-03-05T05:44:54.269Z,25.30
2023-03-05T05:47:43.460Z,28.70
2023-03-05T05:50:35.432Z,21.45
2023-03-05T05:53:23.796Z,23.77
2023-03-05T05:56:06.501Z,28.33
2023-03-05T06:01:40.511Z,22.95
2023-03-05T06:04:29.443Z,20.95
2023-03-05T06:07:22.327Z,25.52
2023-03-05T06:10:11.778Z,25.80
2023-03-05T06:12:54.541Z,21.95
2023-03-05T06:15:43.943Z,20.50
2023-03-05T06:18:26.469Z,17.50
2023-03-05T06:21:12.099Z,21.55
2023-03-05T06:24:02.523Z,13.70
2023-03-05T06:26:44.661Z,11.45
2023-03-05T06:29:35.335Z,17.40
2023-03-05T06:32:23.844Z,16.52
2023-03-05T06:35:06.500Z,18.80
2023-03-05T06:37:55.203Z,18.70
2023-03-05T06:40:38.442Z,21.75
2023-03-05T06:43:27.764Z,14.25
2023-03-05T06:46:12.572Z,13.55
2023-03-05T06:49:03.771Z,12.77
2023-03-05T06:51:48.542Z,12.60
2023-03-05T06:54:30.790Z,10.50
2023-03-05T06:57:19.518Z,10.02
2023-03-05T07:00:11.259Z,10.50
2023-03-05T07:02:53.514Z,10.20
2023-03-05T07:05:41.764Z,9.80
2023-03-05T07:08:24.456Z,10.10
2023-03-05T07:11:18.876Z,8.73
2023-03-05T07:14:01.497Z,8.25
2023-03-05T07:19:31.458Z,12.10
2023-03-05T07:22:13.813Z,8.60
2023-03-05T07:25:02.446Z,8.00
2023-03-05T07:27:51.471Z,10.35
2023-03-05T07:30:34.945Z,10.55
2023-03-05T07:33:23.496Z,11.82
2023-03-05T07:36:05.948Z,9.57
2023-03-05T07:38:54.435Z,11.13
2023-03-05T07:41:36.881Z,8.75
2023-03-05T07:44:26.469Z,10.00
2023-03-05T07:47:08.826Z,9.43
2023-03-05T07:49:57.422Z,10.02
2023-03-05T07:52:39.826Z,9.77
2023-03-05T07:55:28.506Z,9.27
2023-03-05T07:58:10.759Z,8.82
2023-03-05T08:00:59.468Z,7.70
2023-03-05T08:03:41.848Z,8.80
2023-03-05T08:06:30.476Z,7.93
2023-03-05T08:09:12.709Z,8.05
2023-03-05T08:12:01.422Z,8.90
2023-03-05T08:14:43.762Z,8.73
2023-03-05T08:17:32.435Z,8.32
2023-03-05T08:20:15.770Z,7.80
2023-03-05T08:23:04.512Z,9.82
2023-03-05T08:25:46.691Z,9.30
2023-03-05T08:28:35.452Z,8.55
2023-03-05T08:31:26.623Z,8.52
2023-03-05T08:34:15.863Z,9.85
2023-03-05T08:36:58.502Z,11.27
2023-03-05T08:39:46.795Z,10.90
2023-03-05T08:42:29.506Z,8.48
2023-03-05T08:45:18.696Z,8.77
2023-03-05T08:48:01.508Z,9.73
2023-03-05T08:50:50.182Z,10.25
2023-03-05T08:53:33.484Z,9.95
2023-03-05T08:56:16.424Z,10.80
2023-03-05T09:01:47.763Z,11.55
2023-03-05T09:04:36.435Z,11.00
2023-03-05T09:07:25.754Z,11.05
2023-03-05T09:10:07.421Z,11.70
2023-03-05T09:12:56.872Z,11.15
2023-03-05T09:15:39.491Z,10.15
2023-03-05T09:18:27.860Z,10.65
2023-03-05T09:21:16.805Z,11.38
2023-03-05T09:24:05.463Z,10.98
2023-03-05T09:26:49.488Z,11.27
2023-03-05T09:29:40.061Z,11.05
2023-03-05T09:32:24.518Z,10.45
2023-03-05T09:35:13.842Z,10.90
2023-03-05T09:37:56.476Z,10.00
2023-03-05T09:41:23.762Z,9.75
2023-03-05T09:44:36.471Z,10.43
2023-03-05T09:47:45.742Z,10.43
2023-03-05T09:50:41.497Z,9.63
2023-03-05T09:53:57.731Z,9.40
2023-03-05T09:56:45.514Z,8.32
2023-03-05T09:59:51.517Z,8.27
2023-03-05T10:02:44.935Z,8.57
2023-03-05T10:06:07.518Z,9.00
2023-03-05T10:09:05.047Z,8.65
2023-03-05T10:12:11.406Z,8.10
2023-03-05T10:14:54.038Z,8.15
2023-03-05T10:17:42.485Z,8.23
2023-03-05T10:20:48.900Z,7.05
2023-03-05T10:23:58.438Z,8.63
2023-03-05T10:27:22.494Z,7.03
2023-03-05T10:30:27.236Z,7.25
2023-03-05T10:33:40.404Z,6.93
2023-03-05T10:36:58.381Z,6.65
2023-03-05T10:40:05.400Z,6.95
2023-03-05T10:43:10.392Z,7.00
2023-03-05T10:46:02.439Z,6.55
2023-03-05T10:48:55.011Z,6.43
2023-03-05T10:51:49.473Z,5.80
2023-03-05T10:54:36.838Z,5.60
2023-03-05T10:57:36.450Z,6.43
2023-03-05T11:00:36.521Z,6.82
2023-03-05T11:03:25.918Z,7.45
2023-03-05T11:06:14.435Z,6.70
2023-03-05T11:08:56.740Z,6.30
2023-03-05T11:11:46.465Z,6.43
2023-03-05T11:14:35.044Z,6.70
2023-03-05T11:17:56.388Z,6.47
2023-03-05T11:20:44.966Z,6.22
2023-03-05T11:23:33.513Z,5.97
2023-03-05T11:26:21.737Z,6.63
2023-03-05T11:29:12.469Z,6.50
2023-03-05T11:31:54.941Z,7.07
2023-03-05T11:34:43.404Z,6.47
2023-03-05T11:37:39.876Z,6.22
2023-03-05T11:40:40.439Z,5.68
2023-03-05T11:43:32.033Z,5.40
2023-03-05T11:46:21.594Z,5.32
2023-03-05T11:49:12.450Z,5.63
2023-03-05T11:52:25.888Z,5.93
2023-03-05T11:55:08.497Z,4.85
2023-03-05T11:58:09.124Z,5.47
2023-03-05T12:00:54.516Z,4.97
2023-03-05T12:03:40.124Z,5.32
2023-03-05T12:06:33.465Z,4.60
2023-03-05T12:09:39.490Z,5.03
2023-03-05T12:12:46.489Z,5.03
2023-03-05T12:15:53.950Z,4.90
2023-03-05T12:18:45.488Z,5.53
2023-03-05T12:21:48.860Z,5.53
2023-03-05T12:24:34.428Z,5.10
2023-03-05T12:27:41.176Z,5.05
2023-03-05T12:30:38.526Z,5.00
2023-03-05T12:33:49.832Z,6.15
2023-03-05T12:36:32.478Z,5.20
2023-03-05T12:39:50.869Z,4.97
2023-03-05T12:42:39.478Z,5.22
2023-03-05T12:45:34.841Z,4.20
2023-03-05T12:48:22.500Z,5.13
2023-03-05T12:51:11.882Z,4.65
2023-03-05T12:53:59.418Z,5.40
2023-03-05T12:56:54.921Z,6.47
2023-03-05T13:00:20.456Z,5.32
2023-03-05T13:03:09.962Z,5.80
2023-03-05T13:06:08.441Z,5.90
2023-03-05T13:09:08.894Z,5.35
2023-03-05T13:11:54.447Z,6.00
2023-03-05T13:14:50.804Z,5.00
2023-03-05T13:17:41.455Z,5.45
2023-03-05T13:20:40.995Z,4.90
2023-03-05T13:23:28.425Z,5.35
2023-03-05T13:26:21.728Z,4.97
2023-03-05T13:29:23.502Z,5.43
2023-03-05T13:32:35.136Z,5.85
2023-03-05T13:35:28.554Z,5.65
2023-03-05T13:38:30.834Z,5.53
2023-03-05T13:41:32.520Z,5.35
2023-03-05T13:44:30.474Z,6.13
2023-03-05T13:47:43.394Z,5.80
2023-03-05T13:50:38.746Z,6.22
2023-03-05T13:53:32.428Z,6.53
2023-03-05T13:56:27.458Z,6.43
2023-03-05T13:59:09.727Z,9.40
2023-03-05T14:02:00.481Z,9.38
2023-03-05T14:04:45.783Z,10.40
2023-03-05T14:07:56.422Z,11.65
2023-03-05T14:10:46.808Z,10.27
2023-03-05T14:13:39.424Z,9.48
2023-03-05T14:16:34.892Z,9.77
2023-03-05T14:19:40.442Z,10.40
2023-03-05T14:22:36.662Z,11.27
2023-03-05T14:25:52.395Z,10.85
2023-03-05T14:28:41.853Z,10.35
2023-03-05T14:31:26.392Z,10.88
2023-03-05T14:34:15.726Z,10.15
2023-03-05T14:36:59.463Z,10.43
2023-03-05T14:40:05.432Z,8.80
2023-03-05T14:43:05.186Z,7.85
2023-03-05T14:45:51.532Z,9.60
2023-03-05T14:48:39.719Z,9.07
2023-03-05T14:51:22.461Z,8.82
2023-03-05T14:54:04.725Z,8.88
2023-03-05T14:56:53.504Z,9.88
2023-03-05T14:59:35.604Z,8.50
2023-03-05T15:02:30.519Z,8.93
2023-03-05T15:05:13.018Z,10.00
2023-03-05T15:08:02.441Z,9.40
2023-03-05T15:10:50.688Z,10.00
2023-03-05T15:13:33.437Z,11.00
2023-03-05T15:16:18.590Z,9.93
2023-03-05T15:19:07.465Z,11.02
2023-03-05T15:21:49.589Z,11.25
2023-03-05T15:24:38.403Z,11.88
2023-03-05T15:27:27.732Z,11.80
2023-03-05T15:30:10.489Z,11.68
2023-03-05T15:33:00.712Z,11.75
2023-03-05T15:35:43.469Z,11.38
2023-03-05T15:38:32.766Z,12.52
2023-03-05T15:41:15.462Z,12.27
2023-03-05T15:44:03.835Z,12.18
2023-03-05T15:46:46.516Z,11.90
2023-03-05T15:49:35.717Z,11.80
2023-03-05T15:52:18.419Z,12.10
2023-03-05T15:55:09.433Z,13.07
2023-03-05T15:57:54.399Z,12.35
2023-03-05T16:00:45.364Z,11.82
2023-03-05T16:03:28.460Z,13.68
2023-03-05T16:06:28.342Z,11.75
2023-03-05T16:09:18.503Z,12.77
2023-03-05T16:12:00.689Z,12.95
2023-03-05T16:14:51.000Z,13.02
2023-03-05T16:17:33.760Z,12.40
2023-03-05T16:20:24.465Z,14.00
2023-03-05T16:23:06.877Z,14.27
2023-03-05T16:25:55.503Z,15.23
2023-03-05T16:28:37.725Z,13.73
2023-03-05T16:31:26.466Z,15.70
2023-03-05T16:34:11.806Z,17.40
2023-03-05T16:37:00.473Z,16.48
2023-03-05T16:39:43.641Z,16.48
2023-03-05T16:42:32.495Z,17.33
2023-03-05T16:45:15.867Z,16.52
2023-03-05T16:48:04.898Z,16.00
2023-03-05T16:50:46.754Z,15.70
2023-03-05T16:53:35.613Z,16.02
2023-03-05T16:56:18.765Z,16.48
2023-03-05T16:59:07.491Z,15.70
2023-03-05T17:01:50.802Z,16.25
2023-03-05T17:04:39.780Z,14.07
2023-03-05T17:07:36.524Z,14.50
2023-03-05T17:10:26.593Z,14.80
2023-03-05T17:13:15.689Z,14.27
2023-03-05T17:16:04.041Z,15.18
2023-03-05T17:18:49.496Z,15.02
2023-03-05T17:21:41.168Z,14.48
2023-03-05T17:24:25.553Z,15.85
2023-03-05T17:29:57.919Z,14.05
2023-03-05T17:35:32.132Z,15.82
2023-03-05T17:38:22.806Z,16.33
2023-03-05T17:41:12.954Z,16.23
2023-03-05T17:44:03.386Z,15.60
2023-03-05T17:46:46.710Z,15.90
2023-03-05T17:49:35.943Z,16.07
2023-03-05T17:52:19.433Z,16.00
2023-03-05T17:55:08.677Z,17.20
2023-03-05T17:57:56.857Z,16.86
2023-03-05T18:00:46.442Z,16.40
2023-03-05T18:03:29.177Z,17.10
2023-03-05T18:06:19.482Z,17.85
2023-03-05T18:09:09.088Z,17.25
2023-03-05T18:11:52.981Z,17.88
2023-03-05T18:14:36.146Z,18.05
2023-03-05T18:17:27.565Z,17.92
2023-03-05T18:20:14.011Z,18.25
2023-03-05T18:23:03.711Z,16.55
2023-03-05T18:25:46.677Z,18.55
2023-03-05T18:28:35.736Z,18.58
2023-03-05T18:31:26.644Z,17.88
2023-03-05T18:34:09.441Z,16.70
2023-03-05T18:36:52.033Z,17.55
2023-03-05T18:39:41.900Z,16.83
2023-03-05T18:42:30.644Z,18.35
2023-03-05T18:45:15.038Z,18.00
2023-03-05T18:48:06.646Z,18.17
2023-03-05T18:50:49.899Z,17.25
2023-03-05T18:53:39.729Z,16.42
2023-03-05T18:56:21.907Z,15.57
2023-03-05T18:59:10.639Z,13.32
2023-03-05T19:01:53.020Z,13.95
2023-03-05T19:04:42.748Z,18.13
2023-03-05T19:07:31.280Z,13.75
2023-03-05T19:10:16.708Z,14.43
2023-03-05T19:13:44.121Z,13.00
2023-03-05T19:16:30.708Z,14.27
2023-03-05T19:19:29.068Z,15.18
2023-03-05T19:22:12.436Z,14.45
2023-03-05T19:25:03.011Z,15.20
2023-03-05T19:27:45.406Z,14.73
2023-03-05T19:30:34.782Z,14.27
2023-03-05T19:33:17.391Z,16.00
2023-03-05T19:36:00.222Z,15.20
2023-03-05T19:38:50.424Z,15.18
2023-03-05T19:41:39.915Z,15.15
2023-03-05T19:44:22.446Z,14.60
2023-03-05T19:47:11.893Z,15.40
2023-03-05T19:49:54.391Z,15.18
2023-03-05T19:52:43.851Z,17.20
2023-03-05T19:55:26.422Z,15.85
2023-03-05T19:58:15.778Z,15.77
2023-03-05T20:00:58.713Z,15.75
2023-03-05T20:03:47.710Z,15.18
2023-03-05T20:06:30.490Z,16.17
2023-03-05T20:09:19.736Z,17.45
2023-03-05T20:12:02.713Z,15.93
2023-03-05T20:14:51.353Z,17.33
2023-03-05T20:17:33.778Z,16.55
2023-03-05T20:20:26.455Z,16.63
2023-03-05T20:23:08.834Z,15.35
2023-03-05T20:25:57.403Z,17.58
2023-03-05T20:28:40.827Z,16.55
2023-03-05T20:31:32.471Z,17.77
2023-03-05T20:34:17.703Z,18.00
2023-03-05T20:37:06.401Z,17.00
2023-03-05T20:39:48.871Z,16.88
2023-03-05T20:42:37.470Z,16.90
2023-03-05T20:45:20.852Z,17.10
2023-03-05T20:48:09.400Z,17.65
2023-03-05T20:50:58.446Z,17.25
2023-03-05T20:53:40.811Z,16.40
2023-03-05T20:56:29.355Z,16.77
2023-03-05T20:59:12.156Z,16.48
2023-03-05T21:02:01.389Z,15.73
2023-03-05T21:04:43.525Z,16.02
2023-03-05T21:07:34.393Z,16.88
2023-03-05T21:10:17.866Z,15.48
2023-03-05T21:13:08.370Z,17.98
2023-03-05T21:15:50.623Z,18.38
2023-03-05T21:18:39.858Z,17.90
2023-03-05T21:21:21.610Z,18.27
2023-03-05T21:24:10.445Z,19.70
2023-03-05T21:26:52.568Z,18.23
2023-03-05T21:29:41.394Z,19.48
2023-03-05T21:32:30.481Z,19.80
2023-03-05T21:35:13.684Z,19.13
2023-03-05T21:38:02.377Z,22.30
2023-03-05T21:40:49.529Z,21.15
2023-03-05T21:43:39.353Z,23.33
2023-03-05T21:46:28.403Z,21.98
2023-03-05T21:49:10.716Z,27.58
2023-03-05T21:52:22.449Z,28.92
2023-03-05T21:55:05.030Z,29.20
2023-03-05T21:57:54.456Z,34.45
2023-03-05T22:00:43.457Z,35.20
2023-03-05T22:03:25.638Z,35.97
2023-03-05T22:06:22.411Z,37.28
2023-03-05T22:09:11.646Z,37.90
2023-03-05T22:11:54.353Z,36.25
2023-03-05T22:14:45.561Z,41.63
2023-03-05T22:17:34.431Z,42.42
2023-03-05T22:20:23.723Z,58.75
2023-03-05T22:23:06.432Z,64.95
2023-03-05T22:26:04.394Z,63.47
2023-03-05T22:28:46.698Z,58.05
2023-03-05T22:31:36.423Z,58.88
2023-03-05T22:34:18.717Z,57.05
2023-03-05T22:37:07.470Z,54.95
2023-03-05T22:39:49.835Z,54.25
2023-03-05T22:42:39.332Z,52.80
2023-03-05T22:45:30.390Z,52.38
2023-03-05T22:48:13.148Z,49.80
2023-03-05T22:51:10.435Z,45.28
2023-03-05T22:53:58.727Z,44.03
2023-03-05T22:56:40.406Z,41.33
2023-03-05T22:59:22.658Z,40.20
2023-03-05T23:02:11.370Z,38.53
2023-03-05T23:05:02.403Z,39.88
2023-03-05T23:07:59.204Z,38.75
2023-03-05T23:10:48.488Z,40.28
2023-03-05T23:13:30.624Z,37.95
2023-03-05T23:16:19.443Z,37.05
2023-03-05T23:19:08.391Z,39.45
2023-03-05T23:21:50.511Z,40.22
2023-03-05T23:24:39.657Z,44.47
2023-03-05T23:27:28.643Z,49.65
2023-03-05T23:30:31.461Z,53.38
2023-03-05T23:33:22.245Z,56.45
2023-03-05T23:36:13.386Z,56.90
2023-03-05T23:39:05.386Z,57.22
2023-03-05T23:41:54.455Z,57.17
2023-03-05T23:44:36.617Z,56.65
2023-03-05T23:47:25.373Z,56.03
2023-03-05T23:50:11.024Z,55.85
2023-03-05T23:53:04.407Z,53.63
2023-03-05T23:55:47.604Z,50.83
2023-03-05T23:58:37.420Z,51.13
